createdAt,value
2022-07-27T00:01:17.434Z,100.00
2022-07-27T00:04:04.352Z,100.00
2022-07-27T00:06:37.336Z,100.00
2022-07-27T00:09:26.271Z,100.00
2022-07-27T00:12:06.258Z,100.00
2022-07-27T00:14:53.286Z,100.00
2022-07-27T00:17:26.384Z,100.00
2022-07-27T00:20:13.300Z,100.00
2022-07-27T00:22:53.275Z,100.00
2022-07-27T00:25:40.288Z,100.00
2022-07-27T00:28:20.295Z,100.00
2022-07-27T00:31:07.318Z,100.00
2022-07-27T00:33:47.291Z,100.00
2022-07-27T00:36:41.278Z,100.00
2022-07-27T00:39:35.287Z,100.00
2022-07-27T00:42:34.279Z,100.00
2022-07-27T00:45:22.290Z,100.00
2022-07-27T00:47:55.418Z,100.00
2022-07-27T00:50:43.294Z,100.00
2022-07-27T00:53:24.309Z,100.00
2022-07-27T00:56:18.286Z,100.00
2022-07-27T00:59:05.307Z,100.00
2022-07-27T01:01:40.582Z,100.00
2022-07-27T01:04:27.290Z,100.00
2022-07-27T01:07:01.401Z,100.00
2022-07-27T01:10:04.285Z,100.00
2022-07-27T01:12:45.298Z,100.00
2022-07-27T01:15:39.336Z,100.00
2022-07-27T01:18:39.326Z,100.00
2022-07-27T01:21:22.293Z,100.00
2022-07-27T01:24:17.313Z,100.00
2022-07-27T01:27:04.319Z,100.00
2022-07-27T01:29:45.306Z,100.00
2022-07-27T01:32:32.322Z,100.00
2022-07-27T01:35:12.329Z,100.00
2022-07-27T01:38:06.360Z,100.00
2022-07-27T01:40:53.322Z,100.00
2022-07-27T01:43:34.294Z,100.00
2022-07-27T01:46:22.321Z,100.00
2022-07-27T01:48:55.516Z,100.00
2022-07-27T01:51:42.327Z,100.00
2022-07-27T01:54:23.331Z,100.00
2022-07-27T01:57:10.292Z,100.00
2022-07-27T01:59:50.355Z,100.00
2022-07-27T02:02:44.331Z,100.00
2022-07-27T02:05:31.374Z,100.00
2022-07-27T02:08:11.376Z,100.00
2022-07-27T02:11:17.346Z,100.00
2022-07-27T02:13:59.327Z,100.00
2022-07-27T02:16:53.318Z,100.00
2022-07-27T02:19:40.336Z,100.00
2022-07-27T02:22:22.327Z,100.00
2022-07-27T02:25:11.436Z,100.00
2022-07-27T02:27:52.355Z,100.00
2022-07-27T02:30:46.335Z,100.00
2022-07-27T02:33:33.345Z,100.00
2022-07-27T02:36:06.466Z,100.00
2022-07-27T02:38:53.353Z,100.00
2022-07-27T02:41:26.429Z,100.00
2022-07-27T02:44:13.347Z,100.00
2022-07-27T02:46:47.478Z,100.00
2022-07-27T02:49:34.350Z,100.00
2022-07-27T02:52:07.527Z,100.00
2022-07-27T02:54:54.392Z,100.00
2022-07-27T02:57:34.366Z,100.00
2022-07-27T03:00:30.468Z,100.00
2022-07-27T03:03:24.373Z,100.00
2022-07-27T03:06:31.401Z,100.00
2022-07-27T03:09:32.765Z,100.00
2022-07-27T03:12:27.350Z,100.00
2022-07-27T03:15:21.382Z,100.00
2022-07-27T03:18:08.388Z,100.00
2022-07-27T03:20:41.465Z,100.00
2022-07-27T03:23:28.385Z,100.00
2022-07-27T03:26:08.392Z,100.00
2022-07-27T03:28:55.385Z,100.00
2022-07-27T03:31:28.628Z,100.00
2022-07-27T03:34:15.361Z,100.00
2022-07-27T03:36:48.505Z,100.00
2022-07-27T03:39:35.361Z,100.00
2022-07-27T03:42:08.463Z,100.00
2022-07-27T03:44:55.409Z,100.00
2022-07-27T03:47:28.479Z,100.00
2022-07-27T03:50:15.378Z,100.00
2022-07-27T03:52:48.462Z,100.00
2022-07-27T03:55:35.402Z,100.00
2022-07-27T03:58:15.360Z,100.00
2022-07-27T04:01:02.452Z,100.00
2022-07-27T04:03:35.514Z,100.00
2022-07-27T04:06:22.384Z,100.00
2022-07-27T04:09:08.199Z,100.00
2022-07-27T04:11:55.694Z,100.00
2022-07-27T04:14:36.400Z,100.00
2022-07-27T04:17:55.202Z,100.00
2022-07-27T04:20:44.382Z,100.00
2022-07-27T04:23:36.148Z,100.00
2022-07-27T04:26:11.514Z,100.00
2022-07-27T04:28:58.385Z,100.00
2022-07-27T04:31:39.405Z,100.00
2022-07-27T04:34:26.428Z,100.00
2022-07-27T04:36:59.476Z,100.00
2022-07-27T04:39:46.391Z,100.00
2022-07-27T04:42:26.397Z,100.00
2022-07-27T04:45:13.404Z,100.00
2022-07-27T04:47:53.442Z,100.00
2022-07-27T04:50:52.403Z,100.00
2022-07-27T04:53:53.951Z,100.00
2022-07-27T04:56:52.423Z,100.00
2022-07-27T04:59:46.403Z,100.00
2022-07-27T05:02:40.433Z,100.00
2022-07-27T05:05:27.404Z,100.00
2022-07-27T05:08:00.597Z,100.00
2022-07-27T05:10:47.407Z,100.00
2022-07-27T05:13:21.567Z,100.00
2022-07-27T05:16:08.461Z,100.00
2022-07-27T05:18:49.417Z,100.00
2022-07-27T05:21:43.449Z,100.00
2022-07-27T05:24:37.423Z,100.00
2022-07-27T05:27:31.431Z,100.00
2022-07-27T05:30:25.475Z,100.00
2022-07-27T05:33:19.448Z,100.00
2022-07-27T05:36:13.425Z,100.00
2022-07-27T05:39:11.822Z,100.00
2022-07-27T05:42:07.420Z,100.00
2022-07-27T05:44:54.481Z,100.00
2022-07-27T05:47:27.505Z,100.00
2022-07-27T05:50:14.442Z,100.00
2022-07-27T05:52:47.651Z,100.00
2022-07-27T05:55:34.434Z,100.00
2022-07-27T05:58:14.426Z,100.00
2022-07-27T06:01:01.543Z,100.00
2022-07-27T06:03:34.545Z,100.00
2022-07-27T06:06:40.453Z,100.00
2022-07-27T06:09:13.854Z,100.00
2022-07-27T06:12:01.467Z,100.00
2022-07-27T06:14:34.511Z,100.00
2022-07-27T06:17:22.450Z,100.00
2022-07-27T06:19:55.901Z,100.00
2022-07-27T06:23:07.511Z,100.00
2022-07-27T06:25:41.544Z,100.00
2022-07-27T06:28:28.441Z,100.00
2022-07-27T06:31:01.557Z,100.00
2022-07-27T06:33:48.465Z,100.00
2022-07-27T06:36:26.009Z,100.00
2022-07-27T06:39:12.841Z,100.00
2022-07-27T06:41:46.596Z,100.00
2022-07-27T06:44:33.463Z,100.00
2022-07-27T06:47:14.496Z,100.00
2022-07-27T06:50:02.488Z,100.00
2022-07-27T06:52:35.554Z,100.00
2022-07-27T06:55:22.450Z,100.00
2022-07-27T06:57:55.565Z,100.00
2022-07-27T07:00:42.563Z,100.00
2022-07-27T07:03:22.527Z,100.00
2022-07-27T07:06:16.462Z,100.00
2022-07-27T07:09:10.745Z,100.00
2022-07-27T07:11:57.484Z,100.00
2022-07-27T07:14:30.547Z,100.00
2022-07-27T07:17:17.488Z,100.00
2022-07-27T07:19:53.582Z,100.00
2022-07-27T07:22:40.485Z,100.00
2022-07-27T07:25:14.567Z,100.00
2022-07-27T07:28:02.483Z,100.00
2022-07-27T07:30:36.580Z,100.00
2022-07-27T07:33:23.496Z,100.00
2022-07-27T07:36:14.040Z,100.00
2022-07-27T07:38:54.495Z,100.00
2022-07-27T07:41:36.482Z,100.00
2022-07-27T07:44:16.494Z,100.00
2022-07-27T07:46:56.639Z,100.00
2022-07-27T07:49:39.476Z,100.00
2022-07-27T07:52:34.505Z,100.00
2022-07-27T07:55:28.506Z,100.00
2022-07-27T07:58:16.520Z,100.00
2022-07-27T08:00:56.495Z,99.20
2022-07-27T08:03:51.283Z,98.21
2022-07-27T08:06:46.526Z,98.24
2022-07-27T08:09:34.534Z,97.98
2022-07-27T08:12:09.614Z,98.68
2022-07-27T08:14:56.517Z,97.74
2022-07-27T08:17:29.648Z,96.85
2022-07-27T08:20:17.506Z,95.95
2022-07-27T08:22:58.519Z,94.39
2022-07-27T08:25:55.526Z,95.13
2022-07-27T08:28:42.571Z,94.15
2022-07-27T08:31:22.664Z,93.99
2022-07-27T08:34:06.500Z,94.28
2022-07-27T08:36:46.625Z,92.73
2022-07-27T08:40:06.159Z,93.48
2022-07-27T08:42:27.629Z,92.45
2022-07-27T08:45:07.527Z,92.29
2022-07-27T08:47:48.567Z,92.64
2022-07-27T08:50:24.732Z,92.47
2022-07-27T08:53:14.534Z,92.59
2022-07-27T08:55:57.553Z,92.43
2022-07-27T08:58:51.537Z,91.18
2022-07-27T09:01:39.590Z,91.96
2022-07-27T09:04:15.671Z,92.82
2022-07-27T09:07:02.535Z,91.79
2022-07-27T09:09:50.681Z,92.57
2022-07-27T09:12:39.541Z,92.00
2022-07-27T09:15:18.109Z,91.50
2022-07-27T09:18:04.587Z,90.91
2022-07-27T09:20:37.817Z,92.46
2022-07-27T09:23:33.565Z,90.20
2022-07-27T09:26:36.656Z,91.99
2022-07-27T09:29:23.554Z,91.78
2022-07-27T09:32:05.549Z,90.70
2022-07-27T09:34:52.553Z,91.07
2022-07-27T09:37:41.563Z,89.44
2022-07-27T09:40:37.567Z,90.84
2022-07-27T09:46:17.744Z,89.17
2022-07-27T09:49:04.715Z,89.10
2022-07-27T09:52:02.679Z,89.60
2022-07-27T09:54:58.585Z,87.26
2022-07-27T09:58:05.567Z,86.07
2022-07-27T10:00:45.593Z,88.46
2022-07-27T10:03:39.583Z,87.04
2022-07-27T10:06:27.579Z,86.68
2022-07-27T10:09:02.707Z,86.76
2022-07-27T10:11:49.597Z,85.03
2022-07-27T10:14:29.716Z,85.63
2022-07-27T10:17:09.589Z,85.45
2022-07-27T10:19:54.905Z,86.03
2022-07-27T10:22:56.637Z,84.14
2022-07-27T10:25:38.606Z,83.34
2022-07-27T10:28:24.598Z,83.10
2022-07-27T10:31:24.649Z,84.04
2022-07-27T10:34:00.815Z,84.14
2022-07-27T10:36:57.589Z,84.71
2022-07-27T10:39:49.610Z,83.90
2022-07-27T10:42:46.091Z,83.98
2022-07-27T10:46:01.413Z,84.44
2022-07-27T10:48:49.674Z,85.44
2022-07-27T10:51:22.696Z,86.01
2022-07-27T10:54:29.397Z,84.54
2022-07-27T10:57:05.685Z,83.75
2022-07-27T11:00:08.599Z,81.62
2022-07-27T11:02:55.605Z,82.55
2022-07-27T11:05:59.641Z,81.16
2022-07-27T11:08:47.019Z,83.97
2022-07-27T11:11:35.632Z,84.72
2022-07-27T11:14:18.892Z,82.70
2022-07-27T11:19:56.434Z,83.03
2022-07-27T11:23:33.978Z,84.36
2022-07-27T11:25:39.667Z,83.93
2022-07-27T11:28:35.364Z,83.11
2022-07-27T11:31:09.493Z,83.00
2022-07-27T11:34:03.480Z,83.34
2022-07-27T11:36:55.436Z,84.32
2022-07-27T11:40:27.792Z,83.09
2022-07-27T11:43:03.364Z,83.85
2022-07-27T11:45:57.457Z,84.44
2022-07-27T11:49:08.340Z,83.03
2022-07-27T11:52:03.366Z,83.90
2022-07-27T11:54:57.499Z,83.30
2022-07-27T11:57:51.379Z,83.03
2022-07-27T12:00:54.417Z,82.87
2022-07-27T12:03:48.414Z,81.37
2022-07-27T12:06:35.383Z,82.82
2022-07-27T12:09:13.043Z,83.78
2022-07-27T12:12:05.370Z,82.48
2022-07-27T12:14:46.143Z,82.89
2022-07-27T12:17:41.371Z,82.92
2022-07-27T12:20:30.407Z,81.34
2022-07-27T12:23:18.405Z,79.59
2022-07-27T12:26:15.431Z,79.49
2022-07-27T12:29:24.380Z,80.27
2022-07-27T12:32:11.554Z,80.86
2022-07-27T12:34:44.487Z,81.11
2022-07-27T12:37:38.409Z,78.99
2022-07-27T12:40:20.561Z,79.68
2022-07-27T12:43:12.416Z,80.20
2022-07-27T12:45:46.576Z,80.21
2022-07-27T12:48:44.432Z,81.41
2022-07-27T12:51:17.480Z,81.43
2022-07-27T12:54:04.439Z,81.66
2022-07-27T12:56:37.479Z,81.78
2022-07-27T12:59:28.395Z,80.63
2022-07-27T13:02:08.486Z,80.39
2022-07-27T13:04:56.410Z,80.52
2022-07-27T13:07:36.425Z,79.87
2022-07-27T13:10:31.418Z,80.57
2022-07-27T13:13:18.413Z,81.03
2022-07-27T13:15:58.412Z,80.68
2022-07-27T13:18:52.398Z,81.45
2022-07-27T13:21:46.446Z,80.58
2022-07-27T13:24:33.442Z,79.07
2022-07-27T13:27:13.419Z,79.25
2022-07-27T13:30:00.435Z,78.25
2022-07-27T13:32:40.603Z,79.32
2022-07-27T13:35:34.417Z,79.80
2022-07-27T13:38:28.416Z,77.42
2022-07-27T13:41:15.441Z,78.76
2022-07-27T13:43:48.558Z,79.55
2022-07-27T13:46:35.440Z,79.41
2022-07-27T13:49:09.770Z,79.01
2022-07-27T13:51:56.496Z,79.36
2022-07-27T13:54:30.572Z,79.57
2022-07-27T13:57:17.574Z,79.94
2022-07-27T13:59:50.728Z,79.55
2022-07-27T14:02:37.577Z,79.63
2022-07-27T14:05:12.923Z,79.25
2022-07-27T14:08:03.335Z,80.20
2022-07-27T14:10:46.441Z,80.14
2022-07-27T14:13:33.445Z,79.85
2022-07-27T14:16:16.472Z,78.43
2022-07-27T14:19:12.752Z,77.39
2022-07-27T14:21:59.458Z,79.04
2022-07-27T14:24:37.598Z,78.75
2022-07-27T14:27:24.450Z,79.45
2022-07-27T14:29:57.627Z,79.41
2022-07-27T14:32:44.457Z,81.08
2022-07-27T14:35:17.589Z,79.75
2022-07-27T14:38:06.465Z,78.30
2022-07-27T14:40:46.457Z,79.08
2022-07-27T14:43:34.446Z,78.77
2022-07-27T14:46:07.578Z,78.88
2022-07-27T14:49:09.917Z,76.02
2022-07-27T14:51:50.495Z,77.32
2022-07-27T14:54:44.474Z,74.76
2022-07-27T14:57:38.482Z,75.68
2022-07-27T15:00:36.237Z,76.82
2022-07-27T15:03:31.478Z,76.97
2022-07-27T15:06:25.480Z,76.96
2022-07-27T15:09:12.787Z,76.95
2022-07-27T15:11:53.504Z,75.95
2022-07-27T15:14:47.508Z,76.06
2022-07-27T15:17:34.520Z,75.24
2022-07-27T15:20:32.488Z,76.08
2022-07-27T15:23:26.503Z,76.63
2022-07-27T15:26:13.489Z,76.18
2022-07-27T15:28:54.496Z,76.25
2022-07-27T15:31:48.593Z,77.16
2022-07-27T15:34:42.507Z,76.69
2022-07-27T15:37:29.507Z,76.97
2022-07-27T15:40:29.504Z,77.91
2022-07-27T15:43:19.506Z,76.18
2022-07-27T15:45:56.582Z,75.12
2022-07-27T15:48:43.516Z,74.12
2022-07-27T15:51:18.835Z,74.50
2022-07-27T15:54:05.512Z,76.02
2022-07-27T15:56:38.646Z,75.36
2022-07-27T15:59:26.521Z,75.62
2022-07-27T16:02:06.533Z,75.30
2022-07-27T16:05:01.552Z,75.97
2022-07-27T16:07:55.533Z,77.21
2022-07-27T16:10:51.542Z,77.74
2022-07-27T16:13:45.521Z,76.97
2022-07-27T16:16:39.568Z,77.38
2022-07-27T16:19:33.516Z,77.46
2022-07-27T16:22:20.530Z,78.53
2022-07-27T16:25:00.507Z,78.76
2022-07-27T16:27:54.546Z,78.85
2022-07-27T16:30:41.532Z,78.96
2022-07-27T16:33:21.519Z,79.31
2022-07-27T16:36:08.913Z,79.38
2022-07-27T16:38:50.325Z,79.72
2022-07-27T16:41:37.558Z,79.38
2022-07-27T16:44:10.603Z,79.34
2022-07-27T16:46:57.600Z,79.08
2022-07-27T16:49:37.582Z,79.16
2022-07-27T16:52:31.532Z,79.13
2022-07-27T16:55:18.560Z,79.08
2022-07-27T16:57:51.706Z,79.84
2022-07-27T17:00:39.014Z,79.68
2022-07-27T17:03:19.557Z,80.08
2022-07-27T17:06:13.553Z,80.46
2022-07-27T17:09:00.568Z,80.17
2022-07-27T17:11:37.474Z,80.11
2022-07-27T17:14:24.557Z,80.60
2022-07-27T17:17:04.550Z,80.13
2022-07-27T17:19:58.570Z,80.34
2022-07-27T17:22:52.560Z,79.05
2022-07-27T17:25:33.542Z,79.01
2022-07-27T17:28:13.585Z,78.16
2022-07-27T17:30:46.689Z,77.77
2022-07-27T17:33:33.585Z,78.37
2022-07-27T17:36:09.722Z,77.50
2022-07-27T17:39:01.601Z,77.70
2022-07-27T17:41:34.676Z,77.81
2022-07-27T17:44:21.578Z,78.53
2022-07-27T17:46:54.726Z,79.29
2022-07-27T17:49:41.592Z,79.11
2022-07-27T17:52:14.695Z,79.47
2022-07-27T17:55:01.575Z,79.17
2022-07-27T17:57:34.653Z,79.19
2022-07-27T18:00:21.608Z,78.99
2022-07-27T18:03:01.579Z,79.42
2022-07-27T18:05:55.643Z,79.29
2022-07-27T18:08:42.583Z,80.18
2022-07-27T18:11:15.895Z,79.93
2022-07-27T18:14:04.608Z,81.15
2022-07-27T18:16:40.678Z,81.35
2022-07-27T18:19:34.598Z,81.60
2022-07-27T18:22:28.601Z,82.51
2022-07-27T18:25:16.628Z,82.75
2022-07-27T18:27:56.603Z,83.36
2022-07-27T18:30:43.654Z,83.22
2022-07-27T18:33:16.715Z,83.83
2022-07-27T18:36:03.611Z,84.46
2022-07-27T18:38:43.607Z,84.84
2022-07-27T18:41:37.597Z,84.71
2022-07-27T18:44:25.648Z,84.78
2022-07-27T18:46:58.681Z,85.51
2022-07-27T18:49:45.602Z,86.24
2022-07-27T18:52:26.633Z,87.21
2022-07-27T18:55:13.599Z,86.30
2022-07-27T18:57:54.704Z,86.35
2022-07-27T19:00:48.614Z,85.94
2022-07-27T19:03:37.605Z,85.84
2022-07-27T19:06:17.865Z,86.16
2022-07-27T19:09:05.722Z,86.49
2022-07-27T19:11:47.038Z,86.84
2022-07-27T19:14:40.617Z,86.51
2022-07-27T19:17:22.726Z,86.78
2022-07-27T19:20:16.634Z,87.53
2022-07-27T19:23:10.629Z,89.21
2022-07-27T19:26:06.635Z,89.07
2022-07-27T19:28:58.632Z,89.44
2022-07-27T19:31:31.797Z,89.24
2022-07-27T19:34:18.635Z,88.97
2022-07-27T19:36:52.739Z,89.57
2022-07-27T19:39:57.529Z,90.56
2022-07-27T19:42:39.631Z,91.16
2022-07-27T19:45:26.704Z,91.22
2022-07-27T19:48:01.524Z,91.19
2022-07-27T19:50:48.660Z,91.45
2022-07-27T19:53:28.635Z,91.68
2022-07-27T19:56:22.665Z,91.86
2022-07-27T19:59:16.703Z,91.57
2022-07-27T20:02:03.814Z,91.57
2022-07-27T20:04:41.173Z,91.38
2022-07-27T20:07:28.649Z,92.56
2022-07-27T20:10:01.777Z,92.42
2022-07-27T20:12:48.652Z,93.12
2022-07-27T20:15:22.446Z,93.18
2022-07-27T20:18:09.667Z,93.20
2022-07-27T20:20:49.636Z,93.31
2022-07-27T20:23:44.703Z,93.81
2022-07-27T20:26:31.673Z,93.63
2022-07-27T20:29:04.775Z,93.59
2022-07-27T20:31:52.168Z,93.92
2022-07-27T20:34:29.792Z,93.43
2022-07-27T20:37:16.680Z,93.67
2022-07-27T20:39:49.941Z,93.50
2022-07-27T20:42:36.685Z,94.18
2022-07-27T20:45:14.996Z,93.64
2022-07-27T20:48:02.696Z,94.14
2022-07-27T20:50:35.752Z,93.83
2022-07-27T20:53:22.688Z,94.08
2022-07-27T20:55:55.775Z,94.22
2022-07-27T20:58:42.673Z,94.27
2022-07-27T21:01:15.952Z,94.08
2022-07-27T21:04:02.686Z,94.12
2022-07-27T21:06:35.796Z,94.23
2022-07-27T21:09:22.689Z,94.35
2022-07-27T21:11:55.797Z,94.62
2022-07-27T21:14:42.708Z,94.36
2022-07-27T21:17:23.742Z,94.37
2022-07-27T21:20:11.736Z,94.56
2022-07-27T21:22:52.728Z,94.53
2022-07-27T21:25:46.705Z,95.25
2022-07-27T21:28:33.729Z,94.73
2022-07-27T21:31:06.809Z,95.13
2022-07-27T21:33:54.854Z,95.61
2022-07-27T21:36:35.709Z,95.68
2022-07-27T21:39:31.723Z,96.09
2022-07-27T21:42:18.779Z,96.44
2022-07-27T21:44:52.634Z,96.61
2022-07-27T21:47:39.725Z,97.14
2022-07-27T21:50:13.805Z,97.68
2022-07-27T21:53:00.707Z,97.91
2022-07-27T21:55:33.909Z,97.92
2022-07-27T21:58:21.754Z,97.99
2022-07-27T22:00:54.908Z,98.31
2022-07-27T22:03:43.750Z,98.71
2022-07-27T22:06:17.881Z,98.75
2022-07-27T22:09:04.727Z,99.10
2022-07-27T22:11:44.843Z,99.83
2022-07-27T22:14:31.730Z,99.98
2022-07-27T22:17:04.978Z,100.00
2022-07-27T22:19:58.748Z,100.00
2022-07-27T22:22:52.803Z,100.00
2022-07-27T22:25:46.714Z,100.00
2022-07-27T22:28:33.729Z,100.00
2022-07-27T22:31:21.587Z,100.00
2022-07-27T22:34:09.898Z,100.00
2022-07-27T22:36:49.719Z,100.00
2022-07-27T22:39:43.770Z,100.00
2022-07-27T22:42:37.738Z,100.00
2022-07-27T22:45:24.812Z,100.00
2022-07-27T22:47:57.821Z,100.00
2022-07-27T22:50:44.751Z,100.00
2022-07-27T22:53:24.765Z,100.00
2022-07-27T22:56:12.748Z,100.00
2022-07-27T22:58:52.767Z,100.00
2022-07-27T23:01:48.268Z,100.00
2022-07-27T23:04:35.744Z,100.00
2022-07-27T23:07:08.863Z,100.00
2022-07-27T23:09:57.187Z,100.00
2022-07-27T23:12:37.758Z,100.00
2022-07-27T23:15:31.772Z,100.00
2022-07-27T23:18:19.841Z,100.00
2022-07-27T23:20:59.828Z,100.00
2022-07-27T23:23:54.320Z,100.00
2022-07-27T23:26:40.788Z,100.00
2022-07-27T23:29:13.869Z,100.00
2022-07-27T23:32:01.895Z,100.00
2022-07-27T23:34:41.775Z,100.00
2022-07-27T23:37:28.770Z,100.00
2022-07-27T23:40:01.863Z,100.00
2022-07-27T23:42:48.784Z,100.00
2022-07-27T23:45:21.989Z,100.00
2022-07-27T23:48:08.784Z,100.00
2022-07-27T23:50:42.938Z,100.00
2022-07-27T23:53:30.766Z,100.00
2022-07-27T23:56:03.877Z,100.00
2022-07-27T23:58:51.822Z,100.00
